FCCO2: Cobb Creek nr Ft. Cobb, OK

Data processed at Thu Jan 04 2018 23:10


All information presented herein is the property of the government of the United States of America and may be revised or deleted at any time without prior notice.
Dissemination of this information without the expressed written consent of the Public Affairs Office, Tulsa District U.S. Army Corps of Engineers is strictly prohibited.
These data are gathered electronically and, as presented, have not undergone any form of quality control. These data are not guaranteed to be valid or correct.
Go to home page.
Go to station list.

Upstream stations:

Downstream station:
Previous Day
Next Day
Current Day
    
SHEF ID:       FCCO2     Cobb Creek near Fort Cobb, OK
STATION TYPE:  

                STAGE  RIV-FLOW  BAT-LOAD
                   ft       cfs      volt
              Ccp-Rev   Ccp-Rev   Ccp-Rev
(US/Central)
01/02 00:00      6.35       115     12.57
01/02 01:00      6.37       117     12.49
01/02 02:00      5.88        84     12.49
01/02 03:00      5.51        65     12.49
01/02 04:00      6.30       112     12.41
01/02 05:00      6.32       113     12.41
01/02 06:00      6.36       116     12.41
01/02 07:00      6.40       119     12.41
01/02 08:00      6.41       120     12.41
01/02 09:00      6.39       118     12.33
01/02 10:00      6.42       121     12.49
01/02 11:00      6.46       124     12.97
01/02 12:00      6.35       115     13.13
01/02 13:00      6.39       118     13.29
01/02 14:00      6.39       118     13.29
01/02 15:00      6.39       118     13.29
01/02 16:00      6.39       118     13.29
01/02 17:00      6.35       115     13.29
01/02 18:00      6.12        99     12.97
01/02 19:00      5.35        57     12.81
01/02 20:00      4.63        29     12.73
01/02 21:00      4.15        15     12.65
01/02 22:00      3.86         9     12.65
01/02 23:00      3.71         7     12.57